METAR Data
IDs: Format: Raw Decoded Include TAF

Data at: 0130 UTC 20 Jul 2019

METAR for:KOXV (Knoxville Muni, IA, US)
Text:KOXV 200115Z AUTO 20009KT 10SM CLR 31/26 A2973 RMK AO2
Temperature: 31.0°C ( 88°F)
Dewpoint: 26.0°C ( 79°F) [RH = 75%]
Pressure (altimeter):29.73 inches Hg (1006.9 mb)
Winds:from the SSW (200 degrees) at 10 MPH (9 knots; 4.6 m/s)
Visibility:10 or more sm (16+ km)
Ceiling:at least 12,000 feet AGL
Clouds:sky clear below 12,000 feet AGL
QC Flag:automated observation with no human augmentation